Impacts METAR Board INFO
IDs:

KHUM - Houma/Terrebonne Arp, LA, US

Updated at: 0001 UTC 25 Feb 2018
Potential Impact None Slight Moderate High
Time24/12Z 24/13Z 24/14Z 24/15Z 24/16Z 24/17Z 24/18Z 24/19Z 24/20Z 24/21Z 24/22Z 24/23Z 25/00Z
VIS7 7 7 7 7 7 7 7 7 7 7 7 7
CIG20 -- 14 16 18 20 20 22 22 22 25 -- --
CoverBKNSCTBKNBKNBKNBKNBKNBKNBKNBKNBKNSCTSCT
FltCatMVFRVFRMVFRMVFRMVFRMVFRMVFRMVFRMVFRMVFRMVFRVFRVFR
WX--------------------------
WDir160160160160170160170170180180180180180
WSpd8 8 10 12 12 15 15 15 13 15 15 12 10
WGst-- -- -- -- 18 24 22 22 21 21 21 -- --
Raw hourly METARs
KHUM 241147Z 16008KT 7SM SCT014 BKN020 22/21 A3009
KHUM 241247Z 16008KT 7SM SCT020 22/21 A3009
KHUM 241350Z 16010KT 7SM BKN014 24/22 A3009
KHUM 241450Z 16012KT 7SM BKN016 25/22 A3010
KHUM 241547Z 17012G18KT 7SM BKN018 26/22 A3010
KHUM 241655Z 16015G24KT 7SM BKN020 26/21 A3008
KHUM 241755Z 17015G22KT 7SM BKN020 27/21 A3006
KHUM 241847Z 17015G22KT 7SM BKN022 27/21 A3004
KHUM 241950Z 18013G21KT 7SM BKN022 27/21 A3002
KHUM 242047Z 18015G21KT 7SM BKN022 27/21 A3000
KHUM 242150Z 18015G21KT 7SM BKN025 26/21 A2999
KHUM 242255Z 18012KT 7SM SCT025 25/21 A2999
KHUM 242350Z 18010KT 7SM SCT020 24/21 A3000